Time,TemperatureF,DewpointF,PressureIn,WindDirection,WindDirectionDegrees,WindSpeedMPH,WindSpeedGustMPH,Humidity,HourlyPrecipIn,Conditions,Clouds,dailyrainin,SoftwareType,DateUTC
2013-12-07 00:12:00,-7.0,-10.0,30.64,West,267,1.0,5.0,85,0.00,,,0.00,,2013-12-07 06:12:00,
2013-12-07 00:23:00,-8.0,-11.0,30.64,West,267,1.0,5.0,85,0.00,,,0.00,,2013-12-07 06:23:00,
2013-12-07 00:32:00,-8.0,-11.0,30.64,West,267,1.0,5.0,85,0.00,,,0.00,,2013-12-07 06:32:00,
2013-12-07 00:43:00,-8.0,-11.0,30.64,West,267,1.0,5.0,85,0.00,,,0.00,,2013-12-07 06:43:00,
2013-12-07 00:53:00,-8.0,-11.0,30.64,West,268,1.0,4.0,85,0.00,,,0.00,,2013-12-07 06:53:00,
2013-12-07 01:12:00,-8.0,-11.0,30.65,West,267,2.0,5.0,85,0.00,,,0.00,,2013-12-07 07:12:00,
2013-12-07 01:22:00,-8.0,-11.0,30.65,West,259,3.0,6.0,85,0.00,,,0.00,,2013-12-07 07:22:00,
2013-12-07 01:42:00,-8.0,-11.0,30.66,West,271,4.0,8.0,85,0.00,,,0.00,,2013-12-07 07:42:00,
2013-12-07 01:52:00,-9.0,-12.0,30.66,West,269,4.0,10.0,85,0.00,,,0.00,,2013-12-07 07:52:00,
2013-12-07 02:12:00,-9.0,-12.0,30.66,WSW,253,3.0,8.0,84,0.00,,,0.00,,2013-12-07 08:12:00,
2013-12-07 02:22:00,-9.0,-12.0,30.66,WSW,253,3.0,8.0,84,0.00,,,0.00,,2013-12-07 08:22:00,
2013-12-07 02:42:00,-9.0,-12.0,30.66,West,278,3.0,8.0,84,0.00,,,0.00,,2013-12-07 08:42:00,
2013-12-07 02:52:00,-9.0,-12.0,30.67,WSW,250,3.0,8.0,84,0.00,,,0.00,,2013-12-07 08:52:00,
2013-12-07 03:12:00,-10.0,-13.0,30.68,West,266,4.0,8.0,84,0.00,,,0.00,,2013-12-07 09:12:00,
2013-12-07 03:22:00,-10.0,-13.0,30.68,WSW,244,2.0,5.0,84,0.00,,,0.00,,2013-12-07 09:22:00,
2013-12-07 03:43:00,-10.0,-13.0,30.68,WSW,244,4.0,6.0,84,0.00,,,0.00,,2013-12-07 09:43:00,
2013-12-07 03:53:00,-10.0,-13.0,30.68,WSW,244,4.0,6.0,84,0.00,,,0.00,,2013-12-07 09:53:00,
2013-12-07 04:13:00,-11.0,-14.0,30.68,West,273,4.0,7.0,84,0.00,,,0.00,,2013-12-07 10:13:00,
2013-12-07 04:23:00,-11.0,-14.0,30.68,West,273,4.0,7.0,84,0.00,,,0.00,,2013-12-07 10:23:00,
2013-12-07 04:43:00,-11.0,-14.0,30.69,West,273,1.0,5.0,84,0.00,,,0.00,,2013-12-07 10:43:00,
2013-12-07 04:53:00,-11.0,-14.0,30.70,West,273,1.0,6.0,84,0.00,,,0.00,,2013-12-07 10:53:00,
2013-12-07 05:12:00,-12.0,-15.0,30.70,West,273,2.0,5.0,84,0.00,,,0.00,,2013-12-07 11:12:00,
2013-12-07 05:22:00,-12.0,-15.0,30.70,West,273,2.0,5.0,84,0.00,,,0.00,,2013-12-07 11:22:00,
2013-12-07 05:42:00,-12.0,-15.0,30.70,West,273,2.0,7.0,84,0.00,,,0.00,,2013-12-07 11:42:00,
2013-12-07 05:52:00,-12.0,-15.0,30.69,West,273,2.0,6.0,84,0.00,,,0.00,,2013-12-07 11:52:00,
2013-12-07 06:02:00,-12.0,-15.0,30.69,West,273,2.0,6.0,84,0.00,,,0.00,,2013-12-07 12:02:00,
2013-12-07 06:12:00,-12.0,-15.0,30.69,West,273,2.0,6.0,84,0.00,,,0.00,,2013-12-07 12:12:00,
2013-12-07 06:22:00,-12.0,-15.0,30.69,West,273,2.0,5.0,84,0.00,,,0.00,,2013-12-07 12:22:00,
2013-12-07 06:42:00,-13.0,-16.0,30.69,West,273,0.0,0.0,84,0.00,,,0.00,,2013-12-07 12:42:00,
2013-12-07 06:52:00,-13.0,-16.0,30.70,West,273,1.0,4.0,84,0.00,,,0.00,,2013-12-07 12:52:00,
2013-12-07 07:11:00,-13.0,-16.0,30.71,West,273,1.0,3.0,84,0.00,,,0.00,,2013-12-07 13:11:00,
2013-12-07 07:22:00,-14.0,-17.0,30.71,West,273,1.0,6.0,84,0.00,,,0.00,,2013-12-07 13:22:00,
2013-12-07 07:42:00,-14.0,-17.0,30.72,West,273,2.0,6.0,84,0.00,,,0.00,,2013-12-07 13:42:00,
2013-12-07 07:52:00,-14.0,-17.0,30.72,West,273,1.0,5.0,84,0.00,,,0.00,,2013-12-07 13:52:00,
2013-12-07 08:02:00,-14.0,-17.0,30.72,West,273,1.0,5.0,84,0.00,,,0.00,,2013-12-07 14:02:00,
2013-12-07 08:12:00,-14.0,-17.0,30.72,West,273,1.0,5.0,84,0.00,,,0.00,,2013-12-07 14:12:00,
2013-12-07 08:22:00,-14.0,-17.0,30.72,West,273,2.0,5.0,84,0.00,,,0.00,,2013-12-07 14:22:00,
2013-12-07 08:42:00,-13.0,-17.0,30.73,West,273,0.0,4.0,83,0.00,,,0.00,,2013-12-07 14:42:00,
2013-12-07 08:52:00,-13.0,-16.0,30.73,West,273,1.0,4.0,84,0.00,,,0.00,,2013-12-07 14:52:00,
2013-12-07 09:11:00,-12.0,-15.0,30.73,West,273,3.0,6.0,84,0.00,,,0.00,,2013-12-07 15:11:00,
2013-12-07 09:21:00,-11.0,-15.0,30.74,West,269,4.0,8.0,83,0.00,,,0.00,,2013-12-07 15:21:00,
2013-12-07 09:43:00,-11.0,-15.0,30.74,West,273,5.0,9.0,83,0.00,,,0.00,,2013-12-07 15:43:00,
2013-12-07 09:54:00,-10.0,-13.0,30.75,WSW,252,2.0,6.0,84,0.00,,,0.00,,2013-12-07 15:54:00,
2013-12-07 10:03:00,-10.0,-13.0,30.75,WSW,252,2.0,6.0,84,0.00,,,0.00,,2013-12-07 16:03:00,
2013-12-07 10:13:00,-10.0,-13.0,30.75,WSW,252,2.0,6.0,84,0.00,,,0.00,,2013-12-07 16:13:00,
2013-12-07 10:23:00,-10.0,-14.0,30.75,West,265,4.0,9.0,83,0.00,,,0.00,,2013-12-07 16:23:00,
2013-12-07 10:43:00,-8.0,-12.0,30.76,WSW,251,3.0,9.0,84,0.00,,,0.00,,2013-12-07 16:43:00,
2013-12-07 10:53:00,-7.0,-11.0,30.76,West,259,1.0,6.0,84,0.00,,,0.00,,2013-12-07 16:53:00,
2013-12-07 11:12:00,-5.0,-9.0,30.76,SSW,212,5.0,9.0,83,0.00,,,0.00,,2013-12-07 17:12:00,
2013-12-07 11:23:00,-5.0,-9.0,30.76,SW,222,3.0,6.0,83,0.00,,,0.00,,2013-12-07 17:23:00,
2013-12-07 11:43:00,-4.0,-8.0,30.75,West,268,5.0,10.0,82,0.00,,,0.00,,2013-12-07 17:43:00,
2013-12-07 11:52:00,-4.0,-8.0,30.74,SW,230,5.0,9.0,83,0.00,,,0.00,,2013-12-07 17:52:00,
2013-12-07 12:02:00,-4.0,-8.0,30.74,SW,230,5.0,9.0,83,0.00,,,0.00,,2013-12-07 18:02:00,
2013-12-07 12:12:00,-4.0,-8.0,30.74,SW,230,5.0,9.0,83,0.00,,,0.00,,2013-12-07 18:12:00,
2013-12-07 12:22:00,-4.0,-8.0,30.73,WSW,254,3.0,8.0,82,0.00,,,0.00,,2013-12-07 18:22:00,
2013-12-07 12:43:00,-4.0,-8.0,30.73,West,263,5.0,11.0,81,0.00,,,0.00,,2013-12-07 18:43:00,
2013-12-07 12:52:00,-3.0,-7.0,30.73,West,279,4.0,10.0,81,0.00,,,0.00,,2013-12-07 18:52:00,
2013-12-07 13:11:00,-3.0,-8.0,30.73,SSW,209,3.0,8.0,80,0.00,,,0.00,,2013-12-07 19:11:00,
2013-12-07 13:22:00,-3.0,-8.0,30.72,West,261,5.0,11.0,79,0.00,,,0.00,,2013-12-07 19:22:00,
2013-12-07 13:42:00,-2.0,-7.0,30.72,WSW,248,6.0,9.0,79,0.00,,,0.00,,2013-12-07 19:42:00,
2013-12-07 13:52:00,-2.0,-7.0,30.72,WSW,248,6.0,9.0,79,0.00,,,0.00,,2013-12-07 19:52:00,
2013-12-07 14:11:00,-2.0,-7.0,30.71,WSW,244,5.0,13.0,78,0.00,,,0.00,,2013-12-07 20:11:00,
2013-12-07 14:22:00,-2.0,-7.0,30.71,WSW,252,4.0,11.0,79,0.00,,,0.00,,2013-12-07 20:22:00,
2013-12-07 14:42:00,-2.0,-7.0,30.70,SW,234,4.0,11.0,78,0.00,,,0.00,,2013-12-07 20:42:00,
2013-12-07 14:52:00,-2.0,-7.0,30.70,WSW,249,5.0,9.0,78,0.00,,,0.00,,2013-12-07 20:52:00,
2013-12-07 15:11:00,-1.0,-6.0,30.71,WSW,248,5.0,10.0,77,0.00,,,0.00,,2013-12-07 21:11:00,
2013-12-07 15:22:00,-1.0,-6.0,30.70,WSW,250,6.0,12.0,78,0.00,,,0.00,,2013-12-07 21:22:00,
2013-12-07 15:33:00,-1.0,-6.0,30.70,WSW,250,6.0,12.0,78,0.00,,,0.00,,2013-12-07 21:33:00,
2013-12-07 15:43:00,-1.0,-6.0,30.70,WSW,250,6.0,12.0,78,0.00,,,0.00,,2013-12-07 21:43:00,
2013-12-07 15:53:00,-1.0,-6.0,30.70,WSW,240,5.0,9.0,78,0.00,,,0.00,,2013-12-07 21:53:00,
2013-12-07 16:13:00,-2.0,-7.0,30.70,WSW,244,5.0,11.0,77,0.00,,,0.00,,2013-12-07 22:13:00,
2013-12-07 16:23:00,-2.0,-7.0,30.71,WSW,249,5.0,10.0,78,0.00,,,0.00,,2013-12-07 22:23:00,
2013-12-07 16:42:00,-3.0,-8.0,30.71,WSW,252,3.0,11.0,78,0.00,,,0.00,,2013-12-07 22:42:00,
2013-12-07 16:53:00,-3.0,-8.0,30.71,SW,221,1.0,8.0,79,0.00,,,0.00,,2013-12-07 22:53:00,
2013-12-07 17:12:00,-4.0,-9.0,30.71,WSW,240,1.0,7.0,80,0.00,,,0.00,,2013-12-07 23:12:00,
2013-12-07 17:22:00,-4.0,-8.0,30.71,WSW,248,0.0,5.0,81,0.00,,,0.00,,2013-12-07 23:22:00,
2013-12-07 17:33:00,-4.0,-8.0,30.71,WSW,248,0.0,5.0,81,0.00,,,0.00,,2013-12-07 23:33:00,
2013-12-07 17:42:00,-4.0,-8.0,30.71,WSW,248,0.0,5.0,81,0.00,,,0.00,,2013-12-07 23:42:00,
2013-12-07 17:52:00,-5.0,-9.0,30.71,WSW,248,1.0,5.0,81,0.00,,,0.00,,2013-12-07 23:52:00,
2013-12-07 18:11:00,-5.0,-9.0,30.72,WSW,248,1.0,6.0,82,0.00,,,0.00,,2013-12-08 00:11:00,
2013-12-07 18:22:00,-5.0,-9.0,30.72,WSW,248,1.0,4.0,82,0.00,,,0.00,,2013-12-08 00:22:00,
2013-12-07 18:42:00,-6.0,-10.0,30.72,WSW,248,1.0,5.0,83,0.00,,,0.00,,2013-12-08 00:42:00,
2013-12-07 18:52:00,-6.0,-10.0,30.71,WSW,248,0.0,4.0,83,0.00,,,0.00,,2013-12-08 00:52:00,
2013-12-07 19:12:00,-6.0,-10.0,30.71,WSW,248,0.0,2.0,83,0.00,,,0.00,,2013-12-08 01:12:00,
2013-12-07 19:22:00,-6.0,-10.0,30.71,WSW,248,0.0,2.0,83,0.00,,,0.00,,2013-12-08 01:22:00,
2013-12-07 19:42:00,-7.0,-11.0,30.71,WSW,248,0.0,1.0,83,0.00,,,0.00,,2013-12-08 01:42:00,
2013-12-07 19:52:00,-7.0,-11.0,30.71,WSW,248,0.0,1.0,84,0.00,,,0.00,,2013-12-08 01:52:00,
2013-12-07 20:22:00,-8.0,-12.0,30.71,WSW,248,0.0,0.0,84,0.00,,,0.00,,2013-12-08 02:22:00,
2013-12-07 20:43:00,-9.0,-12.0,30.70,WSW,248,0.0,0.0,85,0.00,,,0.00,,2013-12-08 02:43:00,
2013-12-07 20:52:00,-8.0,-11.0,30.70,WSW,248,0.0,1.0,85,0.00,,,0.00,,2013-12-08 02:52:00,
2013-12-07 21:11:00,-9.0,-12.0,30.69,WSW,248,0.0,1.0,84,0.00,,,0.00,,2013-12-08 03:11:00,
2013-12-07 21:22:00,-9.0,-12.0,30.69,WSW,248,0.0,1.0,84,0.00,,,0.00,,2013-12-08 03:22:00,
2013-12-07 21:54:00,-9.0,-12.0,30.69,WSW,248,0.0,0.0,85,0.00,,,0.00,,2013-12-08 03:54:00,
2013-12-07 22:02:00,-999.0,-99.9,30.70,WSW,248,0.0,1.0,-999,0.00,,,0.00,,2013-12-08 04:02:00,
2013-12-07 22:13:00,-9.0,-12.0,30.70,WSW,248,0.0,1.0,85,0.00,,,0.00,,2013-12-08 04:13:00,
2013-12-07 22:23:00,-9.0,-12.0,30.69,WSW,248,0.0,0.0,84,0.00,,,0.00,,2013-12-08 04:23:00,
2013-12-07 22:43:00,-11.0,-14.0,30.69,WSW,248,0.0,0.0,84,0.00,,,0.00,,2013-12-08 04:43:00,
2013-12-07 22:53:00,-10.0,-13.0,30.68,WSW,248,0.0,1.0,84,0.00,,,0.00,,2013-12-08 04:53:00,
2013-12-07 23:03:00,-10.0,-13.0,30.68,WSW,248,0.0,1.0,84,0.00,,,0.00,,2013-12-08 05:03:00,
2013-12-07 23:23:00,-11.0,-14.0,30.69,WSW,248,0.0,1.0,84,0.00,,,0.00,,2013-12-08 05:23:00,
2013-12-07 23:43:00,-11.0,-14.0,30.69,WSW,248,0.0,1.0,85,0.00,,,0.00,,2013-12-08 05:43:00,
2013-12-07 23:53:00,-13.0,-17.0,30.68,WSW,248,0.0,0.0,81,0.00,,,0.00,,2013-12-08 05:53:00,